createdAt,value
2017-12-09T00:02:28.384Z,2.40
2017-12-09T00:04:56.685Z,1.63
2017-12-09T00:07:25.067Z,2.60
2017-12-09T00:09:53.502Z,1.33
2017-12-09T00:12:22.076Z,1.47
2017-12-09T00:14:50.539Z,2.63
2017-12-09T00:17:18.871Z,1.83
2017-12-09T00:19:47.212Z,1.37
2017-12-09T00:22:17.425Z,3.70
2017-12-09T00:24:45.747Z,1.57
2017-12-09T00:27:14.080Z,3.17
2017-12-09T00:29:42.440Z,2.07
2017-12-09T00:32:10.760Z,1.40
2017-12-09T00:34:39.066Z,1.37
2017-12-09T00:37:07.616Z,1.30
2017-12-09T00:39:35.931Z,1.53
2017-12-09T00:42:04.455Z,1.70
2017-12-09T00:44:32.938Z,1.60
2017-12-09T00:47:01.319Z,1.43
2017-12-09T00:49:29.595Z,1.43
2017-12-09T00:51:58.189Z,1.57
2017-12-09T00:54:26.503Z,1.50
2017-12-09T00:56:54.838Z,2.30
2017-12-09T00:59:23.183Z,2.03
2017-12-09T01:01:51.466Z,1.30
2017-12-09T01:04:20.135Z,2.33
2017-12-09T01:06:48.415Z,1.30
2017-12-09T01:09:16.736Z,6.40
2017-12-09T01:11:45.203Z,1.50
2017-12-09T01:14:13.618Z,1.80
2017-12-09T01:18:58.159Z,5.33
2017-12-09T01:21:26.464Z,1.70
2017-12-09T01:23:54.775Z,2.00
2017-12-09T01:26:23.090Z,2.30
2017-12-09T01:28:51.444Z,2.07
2017-12-09T01:31:19.747Z,2.50
2017-12-09T01:33:48.016Z,2.20
2017-12-09T01:36:16.367Z,2.00
2017-12-09T01:38:44.679Z,1.87
2017-12-09T01:41:12.996Z,1.20
2017-12-09T01:43:41.363Z,1.50
2017-12-09T01:46:09.808Z,2.10
2017-12-09T01:48:38.111Z,2.37
2017-12-09T01:51:06.594Z,2.07
2017-12-09T01:53:34.936Z,1.27
2017-12-09T01:56:03.251Z,1.80
2017-12-09T01:58:31.559Z,1.53
2017-12-09T02:00:59.876Z,1.90
2017-12-09T02:03:28.311Z,1.50
2017-12-09T02:05:56.663Z,2.80
2017-12-09T02:08:24.939Z,2.50
2017-12-09T02:10:53.402Z,1.90
2017-12-09T02:13:21.838Z,1.23
2017-12-09T02:15:50.367Z,1.20
2017-12-09T02:18:18.626Z,1.20
2017-12-09T02:20:47.165Z,3.90
2017-12-09T02:23:15.475Z,1.20
2017-12-09T02:25:43.869Z,1.23
2017-12-09T02:28:12.575Z,1.40
2017-12-09T02:30:41.072Z,1.20
2017-12-09T02:33:09.591Z,1.40
2017-12-09T02:35:37.907Z,1.30
2017-12-09T02:38:06.196Z,1.33
2017-12-09T02:40:34.486Z,1.50
2017-12-09T02:43:04.323Z,3.57
2017-12-09T02:45:32.662Z,1.63
2017-12-09T02:48:01.210Z,1.20
2017-12-09T02:50:29.536Z,1.47
2017-12-09T02:52:57.846Z,2.00
2017-12-09T02:55:26.151Z,1.10
2017-12-09T02:57:54.492Z,2.10
2017-12-09T03:00:22.795Z,1.40
2017-12-09T03:02:51.095Z,1.40
2017-12-09T03:05:19.426Z,1.77
2017-12-09T03:07:47.769Z,1.23
2017-12-09T03:10:16.091Z,2.67
2017-12-09T03:12:44.399Z,3.30
2017-12-09T03:15:12.692Z,1.17
2017-12-09T03:17:40.967Z,1.00
2017-12-09T03:20:09.244Z,1.17
2017-12-09T03:22:37.519Z,1.30
2017-12-09T03:25:05.929Z,1.97
2017-12-09T03:27:34.194Z,1.20
2017-12-09T03:30:02.664Z,2.90
2017-12-09T03:32:30.978Z,0.90
2017-12-09T03:34:59.347Z,1.93
2017-12-09T03:37:27.982Z,1.07
2017-12-09T03:39:56.275Z,2.63
2017-12-09T03:42:24.723Z,1.77
2017-12-09T03:44:53.040Z,1.57
2017-12-09T03:47:21.367Z,0.90
2017-12-09T03:49:49.827Z,0.90
2017-12-09T03:52:18.110Z,1.20
2017-12-09T03:54:46.375Z,0.90
2017-12-09T03:57:14.687Z,1.47
2017-12-09T03:59:43.035Z,1.07
2017-12-09T04:02:11.339Z,0.83
2017-12-09T04:04:39.590Z,1.70
2017-12-09T04:07:07.890Z,1.80
2017-12-09T04:09:36.363Z,0.90
2017-12-09T04:12:04.676Z,1.00
2017-12-09T04:14:32.963Z,1.17
2017-12-09T04:17:01.255Z,0.90
2017-12-09T04:19:29.545Z,0.93
2017-12-09T04:21:57.835Z,1.63
2017-12-09T04:24:26.136Z,1.97
2017-12-09T04:26:54.502Z,2.83
2017-12-09T04:29:22.984Z,1.13
2017-12-09T04:31:51.272Z,1.10
2017-12-09T04:34:19.572Z,0.80
2017-12-09T04:36:47.883Z,1.80
2017-12-09T04:39:16.276Z,1.47
2017-12-09T04:41:44.571Z,1.13
2017-12-09T04:44:12.959Z,1.80
2017-12-09T04:46:41.248Z,1.00
2017-12-09T04:49:09.595Z,1.20
2017-12-09T04:51:37.924Z,1.57
2017-12-09T04:54:06.332Z,1.83
2017-12-09T04:56:34.651Z,1.90
2017-12-09T04:59:03.095Z,2.30
2017-12-09T05:01:31.383Z,1.67
2017-12-09T05:03:59.647Z,0.93
2017-12-09T05:06:27.946Z,1.43
2017-12-09T05:08:56.254Z,1.53
2017-12-09T05:11:24.712Z,1.07
2017-12-09T05:13:52.996Z,1.97
2017-12-09T05:16:21.267Z,1.10
2017-12-09T05:18:49.596Z,4.23
2017-12-09T05:21:17.935Z,1.60
2017-12-09T05:23:46.211Z,1.73
2017-12-09T05:26:14.562Z,1.40
2017-12-09T05:28:42.866Z,1.47
2017-12-09T05:31:11.336Z,1.63
2017-12-09T05:33:39.778Z,1.43
2017-12-09T05:36:08.160Z,1.60
2017-12-09T05:38:36.451Z,2.20
2017-12-09T05:41:04.827Z,1.20
2017-12-09T05:43:33.203Z,2.37
2017-12-09T05:46:01.492Z,1.10
2017-12-09T05:48:29.824Z,1.20
2017-12-09T05:50:58.147Z,2.00
2017-12-09T05:53:26.591Z,1.10
2017-12-09T05:55:54.927Z,1.50
2017-12-09T05:58:23.191Z,1.10
2017-12-09T06:00:51.663Z,1.20
2017-12-09T06:03:19.915Z,3.07
2017-12-09T06:05:48.248Z,1.77
2017-12-09T06:08:16.675Z,1.30
2017-12-09T06:10:44.988Z,1.73
2017-12-09T06:13:13.483Z,1.50
2017-12-09T06:15:41.931Z,1.20
2017-12-09T06:18:10.607Z,2.50
2017-12-09T06:20:39.098Z,1.33
2017-12-09T06:23:07.414Z,1.00
2017-12-09T06:25:35.886Z,2.57
2017-12-09T06:28:04.236Z,2.50
2017-12-09T06:30:32.595Z,1.43
2017-12-09T06:33:00.925Z,1.10
2017-12-09T06:35:29.375Z,1.70
2017-12-09T06:37:57.707Z,1.10
2017-12-09T06:40:26.012Z,1.23
2017-12-09T06:42:54.372Z,0.87
2017-12-09T06:45:22.656Z,1.83
2017-12-09T06:47:51.132Z,1.87
2017-12-09T06:50:19.426Z,0.97
2017-12-09T06:52:47.775Z,2.87
2017-12-09T06:55:16.107Z,1.00
2017-12-09T06:57:44.463Z,1.63
2017-12-09T07:00:12.761Z,1.13
2017-12-09T07:02:41.111Z,2.40
2017-12-09T07:05:09.502Z,6.40
2017-12-09T07:07:37.786Z,3.77
2017-12-09T07:10:07.084Z,5.43
2017-12-09T07:12:35.373Z,5.97
2017-12-09T07:15:03.663Z,2.70
2017-12-09T07:17:32.076Z,6.50
2017-12-09T07:20:00.334Z,4.93
2017-12-09T07:22:28.723Z,4.27
2017-12-09T07:24:57.111Z,6.43
2017-12-09T07:27:25.427Z,3.37
2017-12-09T07:29:53.707Z,5.80
2017-12-09T07:32:22.104Z,6.60
2017-12-09T07:34:50.351Z,2.33
2017-12-09T07:37:18.642Z,4.03
2017-12-09T07:39:46.979Z,6.70
2017-12-09T07:42:15.319Z,5.77
2017-12-09T07:44:43.789Z,12.07
2017-12-09T07:47:12.243Z,8.50
2017-12-09T07:49:40.715Z,13.23
2017-12-09T07:52:09.590Z,5.37
2017-12-09T07:54:38.778Z,5.63
2017-12-09T07:57:07.247Z,9.20
2017-12-09T07:59:35.525Z,8.17
2017-12-09T08:02:03.886Z,8.03
2017-12-09T08:04:32.211Z,13.47
2017-12-09T08:07:00.670Z,6.10
2017-12-09T08:09:28.947Z,9.00
2017-12-09T08:11:57.313Z,9.07
2017-12-09T08:14:25.618Z,7.07
2017-12-09T08:16:54.020Z,10.50
2017-12-09T08:19:22.309Z,11.30
2017-12-09T08:21:50.631Z,6.50
2017-12-09T08:24:18.910Z,6.60
2017-12-09T08:26:47.327Z,4.93
2017-12-09T08:29:15.588Z,6.07
2017-12-09T08:31:43.925Z,6.37
2017-12-09T08:34:12.222Z,7.67
2017-12-09T08:36:41.642Z,8.00
2017-12-09T08:39:09.927Z,16.03
2017-12-09T08:41:38.270Z,9.63
2017-12-09T08:44:06.551Z,8.13
2017-12-09T08:46:34.896Z,16.50
2017-12-09T08:49:03.611Z,10.03
2017-12-09T08:51:31.943Z,5.07
2017-12-09T08:54:00.216Z,7.13
2017-12-09T08:56:28.579Z,8.00
2017-12-09T08:58:56.843Z,5.70
2017-12-09T09:01:25.171Z,8.63
2017-12-09T09:03:53.463Z,2.57
2017-12-09T09:06:21.772Z,8.27
2017-12-09T09:08:50.067Z,5.23
2017-12-09T09:11:18.644Z,4.10
2017-12-09T09:13:46.923Z,6.40
2017-12-09T09:16:15.611Z,3.00
2017-12-09T09:18:43.952Z,4.87
2017-12-09T09:21:12.292Z,5.37
2017-12-09T09:23:40.564Z,9.70
2017-12-09T09:26:08.867Z,4.97
2017-12-09T09:28:37.159Z,3.97
2017-12-09T09:31:05.606Z,5.80
2017-12-09T09:33:33.950Z,5.53
2017-12-09T09:36:02.447Z,5.40
2017-12-09T09:38:30.888Z,6.60
2017-12-09T09:40:59.205Z,10.27
2017-12-09T09:43:27.482Z,3.83
2017-12-09T09:45:55.756Z,2.90
2017-12-09T09:48:24.045Z,3.40
2017-12-09T09:50:52.364Z,3.03
2017-12-09T09:53:20.604Z,2.50
2017-12-09T09:55:48.876Z,7.40
2017-12-09T09:58:17.474Z,4.93
2017-12-09T10:00:45.799Z,7.53
2017-12-09T10:03:14.070Z,3.60
2017-12-09T10:05:42.454Z,4.27
2017-12-09T10:08:10.718Z,4.77
2017-12-09T10:10:39.015Z,5.60
2017-12-09T10:13:07.291Z,9.73
2017-12-09T10:15:35.784Z,3.83
2017-12-09T10:18:04.108Z,5.73
2017-12-09T10:20:32.532Z,8.80
2017-12-09T10:23:00.791Z,4.80
2017-12-09T10:25:29.112Z,4.17
2017-12-09T10:27:57.650Z,5.20
2017-12-09T10:30:26.054Z,5.70
2017-12-09T10:32:54.478Z,9.53
2017-12-09T10:35:22.784Z,2.67
2017-12-09T10:37:51.059Z,9.80
2017-12-09T10:40:19.483Z,11.07
2017-12-09T10:42:47.862Z,5.70
2017-12-09T10:45:16.171Z,3.00
2017-12-09T10:47:44.532Z,2.87
2017-12-09T10:50:12.831Z,2.30
2017-12-09T10:52:41.232Z,5.93
2017-12-09T10:55:09.936Z,2.40
2017-12-09T10:57:38.279Z,10.73
2017-12-09T11:00:07.687Z,7.20
2017-12-09T11:02:35.995Z,7.87
2017-12-09T11:05:04.541Z,6.83
2017-12-09T11:07:32.932Z,4.60
2017-12-09T11:10:01.527Z,5.00
2017-12-09T11:12:30.031Z,7.37
2017-12-09T11:14:58.275Z,10.93
2017-12-09T11:17:26.599Z,4.70
2017-12-09T11:19:54.866Z,6.47
2017-12-09T11:22:23.447Z,8.10
2017-12-09T11:24:51.712Z,4.77
2017-12-09T11:27:20.209Z,4.97
2017-12-09T11:29:48.668Z,5.10
2017-12-09T11:32:16.974Z,2.90
2017-12-09T11:34:45.234Z,5.50
2017-12-09T11:37:13.583Z,2.77
2017-12-09T11:39:41.888Z,3.90
2017-12-09T11:42:10.472Z,5.63
2017-12-09T11:44:39.388Z,14.50
2017-12-09T11:47:07.819Z,18.50
2017-12-09T11:49:36.147Z,12.10
2017-12-09T11:52:04.580Z,20.67
2017-12-09T11:54:32.875Z,11.87
2017-12-09T11:57:01.335Z,20.03
2017-12-09T11:59:29.628Z,17.70
2017-12-09T12:01:58.028Z,15.77
2017-12-09T12:04:26.387Z,17.47
2017-12-09T12:06:54.863Z,13.10
2017-12-09T12:09:23.130Z,10.47
2017-12-09T12:11:51.602Z,13.37
2017-12-09T12:14:19.868Z,18.53
2017-12-09T12:16:48.571Z,16.77
2017-12-09T12:19:17.080Z,14.40
2017-12-09T12:21:45.532Z,12.83
2017-12-09T12:24:15.126Z,10.87
2017-12-09T12:26:44.769Z,10.93
2017-12-09T12:29:13.083Z,14.63
2017-12-09T12:31:41.498Z,10.43
2017-12-09T12:34:09.943Z,12.10
2017-12-09T12:36:38.311Z,15.67
2017-12-09T12:39:06.623Z,8.40
2017-12-09T12:41:35.016Z,14.20
2017-12-09T12:44:03.311Z,11.10
2017-12-09T12:46:31.859Z,6.70
2017-12-09T12:49:00.188Z,10.67
2017-12-09T12:51:28.746Z,9.93
2017-12-09T12:53:57.043Z,8.63
2017-12-09T12:56:25.391Z,8.30
2017-12-09T12:58:53.752Z,6.83
2017-12-09T13:01:22.063Z,7.30
2017-12-09T13:03:50.337Z,7.57
2017-12-09T13:06:18.673Z,6.70
2017-12-09T13:08:47.049Z,7.93
2017-12-09T13:11:15.794Z,7.90
2017-12-09T13:13:44.085Z,5.90
2017-12-09T13:16:12.373Z,7.20
2017-12-09T13:18:40.653Z,4.90
2017-12-09T13:21:08.944Z,3.50
2017-12-09T13:23:37.530Z,9.07
2017-12-09T13:26:05.836Z,5.87
2017-12-09T13:28:34.095Z,4.60
2017-12-09T13:31:02.399Z,6.47
2017-12-09T13:33:30.676Z,11.67
2017-12-09T13:35:59.143Z,6.97
2017-12-09T13:38:27.431Z,18.00
2017-12-09T13:40:55.928Z,8.47
2017-12-09T13:43:24.240Z,7.90
2017-12-09T13:45:52.591Z,3.00
2017-12-09T13:48:20.931Z,6.23
2017-12-09T13:50:49.251Z,9.93
2017-12-09T13:53:17.587Z,7.90
2017-12-09T13:55:46.605Z,5.67
2017-12-09T13:58:15.913Z,9.17
2017-12-09T14:00:44.216Z,9.13
2017-12-09T14:03:12.627Z,13.13
2017-12-09T14:05:40.935Z,5.93
2017-12-09T14:08:09.272Z,5.37
2017-12-09T14:10:37.565Z,7.97
2017-12-09T14:13:05.881Z,6.73
2017-12-09T14:15:34.183Z,5.93
2017-12-09T14:18:02.472Z,8.70
2017-12-09T14:20:30.794Z,7.43
2017-12-09T14:22:59.094Z,8.00
2017-12-09T14:25:29.372Z,11.37
2017-12-09T14:27:58.588Z,8.63
2017-12-09T14:30:27.188Z,8.23
2017-12-09T14:32:55.682Z,14.67
2017-12-09T14:35:23.986Z,6.53
2017-12-09T14:37:52.444Z,12.53
2017-12-09T14:40:20.967Z,6.53
2017-12-09T14:42:49.381Z,6.10
2017-12-09T14:45:17.659Z,4.53
2017-12-09T14:47:46.081Z,7.70
2017-12-09T14:50:14.702Z,5.23
2017-12-09T14:52:42.988Z,7.57
2017-12-09T14:55:11.271Z,10.33
2017-12-09T14:57:39.584Z,6.93
2017-12-09T15:00:07.899Z,8.33
2017-12-09T15:02:36.184Z,5.40
2017-12-09T15:05:04.475Z,20.07
2017-12-09T15:07:32.756Z,10.03
2017-12-09T15:10:01.032Z,9.60
2017-12-09T15:12:29.351Z,8.27
2017-12-09T15:14:57.745Z,12.60
2017-12-09T15:17:26.331Z,10.93
2017-12-09T15:19:54.612Z,7.83
2017-12-09T15:22:22.991Z,13.80
2017-12-09T15:24:51.271Z,9.20
2017-12-09T15:27:19.630Z,10.77
2017-12-09T15:29:47.914Z,9.30
2017-12-09T15:32:16.299Z,9.53
2017-12-09T15:34:44.555Z,8.00
2017-12-09T15:37:12.897Z,7.00
2017-12-09T15:39:41.150Z,17.60
2017-12-09T15:42:09.541Z,12.80
2017-12-09T15:44:37.820Z,8.67
2017-12-09T15:47:06.192Z,23.87
2017-12-09T15:49:34.487Z,11.10
2017-12-09T15:52:02.837Z,11.07
2017-12-09T15:54:31.204Z,12.03
2017-12-09T15:56:59.572Z,7.13
2017-12-09T15:59:27.855Z,8.73
2017-12-09T16:01:56.216Z,10.90
2017-12-09T16:04:24.499Z,9.00
2017-12-09T16:06:52.867Z,9.30
2017-12-09T16:09:21.190Z,12.70
2017-12-09T16:11:49.528Z,11.67
2017-12-09T16:14:17.827Z,13.67
2017-12-09T16:16:46.180Z,13.93
2017-12-09T16:19:14.713Z,16.63
2017-12-09T16:21:43.218Z,13.23
2017-12-09T16:24:13.062Z,11.67
2017-12-09T16:26:41.460Z,9.50
2017-12-09T16:29:09.755Z,10.67
2017-12-09T16:31:38.052Z,8.10
2017-12-09T16:34:06.443Z,15.87
2017-12-09T16:36:34.731Z,16.87
2017-12-09T16:39:03.064Z,14.80
2017-12-09T16:41:31.385Z,13.90
2017-12-09T16:43:59.712Z,18.60
2017-12-09T16:46:28.032Z,19.50
2017-12-09T16:48:56.609Z,17.13
2017-12-09T16:51:24.919Z,17.00
2017-12-09T16:53:53.332Z,25.30
2017-12-09T16:56:21.625Z,13.50
2017-12-09T16:58:49.926Z,18.70
2017-12-09T17:01:18.258Z,24.03
2017-12-09T17:03:46.658Z,18.83
2017-12-09T17:06:15.081Z,13.80
2017-12-09T17:08:43.381Z,19.00
2017-12-09T17:11:11.679Z,17.73
2017-12-09T17:13:40.007Z,11.80
2017-12-09T17:16:08.311Z,12.40
2017-12-09T17:18:36.611Z,15.70
2017-12-09T17:21:04.953Z,17.20
2017-12-09T17:23:33.328Z,22.90
2017-12-09T17:26:01.739Z,18.03
2017-12-09T17:28:30.229Z,14.73
2017-12-09T17:30:58.830Z,9.60
2017-12-09T17:33:32.608Z,11.90
2017-12-09T17:36:07.235Z,12.10
2017-12-09T17:38:36.499Z,11.90
2017-12-09T17:41:05.012Z,30.87
2017-12-09T17:43:33.318Z,11.17
2017-12-09T17:46:01.649Z,20.20
2017-12-09T17:48:30.092Z,18.00
2017-12-09T17:50:58.464Z,7.33
2017-12-09T17:53:26.765Z,11.20
2017-12-09T17:55:55.254Z,10.10
2017-12-09T17:58:23.830Z,9.37
2017-12-09T18:00:52.247Z,11.00
2017-12-09T18:03:21.283Z,11.13
2017-12-09T18:05:49.755Z,5.30
2017-12-09T18:08:21.903Z,10.13
2017-12-09T18:10:51.776Z,7.87
2017-12-09T18:13:20.052Z,19.20
2017-12-09T18:15:48.383Z,8.23
2017-12-09T18:18:16.658Z,9.60
2017-12-09T18:20:45.035Z,6.43
2017-12-09T18:23:13.979Z,6.53
2017-12-09T18:25:44.124Z,5.80
2017-12-09T18:28:12.387Z,6.20
2017-12-09T18:30:40.675Z,6.77
2017-12-09T18:33:08.975Z,7.03
2017-12-09T18:35:37.355Z,6.60
2017-12-09T18:38:05.627Z,15.80
2017-12-09T18:40:34.062Z,8.20
2017-12-09T18:43:02.355Z,4.23
2017-12-09T18:45:30.976Z,3.37
2017-12-09T18:47:59.244Z,7.03
2017-12-09T18:50:27.572Z,7.40
2017-12-09T18:52:55.911Z,6.17
2017-12-09T18:55:24.227Z,6.50
2017-12-09T18:57:52.548Z,4.90
2017-12-09T19:00:20.925Z,2.60
2017-12-09T19:02:49.360Z,3.40
2017-12-09T19:05:17.671Z,5.13
2017-12-09T19:07:45.972Z,12.80
2017-12-09T19:10:14.619Z,13.17
2017-12-09T19:12:43.055Z,6.67
2017-12-09T19:15:11.358Z,4.07
2017-12-09T19:17:39.687Z,6.63
2017-12-09T19:20:08.352Z,10.97
2017-12-09T19:22:36.647Z,4.60
2017-12-09T19:25:05.017Z,4.67
2017-12-09T19:27:33.354Z,8.63
2017-12-09T19:30:02.052Z,4.63
2017-12-09T19:32:30.520Z,5.80
2017-12-09T19:34:58.920Z,6.50
2017-12-09T19:37:27.255Z,4.13
2017-12-09T19:39:55.754Z,5.67
2017-12-09T19:42:24.108Z,3.53
2017-12-09T19:44:52.439Z,7.53
2017-12-09T19:47:20.772Z,4.90
2017-12-09T19:49:49.094Z,5.53
2017-12-09T19:52:17.441Z,15.03
2017-12-09T19:54:45.739Z,4.40
2017-12-09T19:57:14.116Z,8.30
2017-12-09T19:59:42.447Z,2.63
2017-12-09T20:02:10.795Z,6.97
2017-12-09T20:04:39.148Z,10.23
2017-12-09T20:07:07.441Z,5.47
2017-12-09T20:09:35.724Z,6.70
2017-12-09T20:12:04.027Z,4.87
2017-12-09T20:14:32.359Z,6.10
2017-12-09T20:17:00.815Z,5.80
2017-12-09T20:19:29.091Z,3.10
2017-12-09T20:21:57.395Z,1.83
2017-12-09T20:24:26.622Z,3.60
2017-12-09T20:26:55.031Z,6.33
2017-12-09T20:29:23.307Z,6.80
2017-12-09T20:31:51.611Z,6.00
2017-12-09T20:34:20.067Z,2.93
2017-12-09T20:36:48.500Z,3.43
2017-12-09T20:39:16.760Z,3.03
2017-12-09T20:41:45.085Z,4.03
2017-12-09T20:44:13.471Z,3.80
2017-12-09T20:46:41.912Z,4.10
2017-12-09T20:49:10.327Z,5.40
2017-12-09T20:51:38.615Z,2.97
2017-12-09T20:54:07.089Z,6.37
2017-12-09T20:56:35.455Z,6.10
2017-12-09T20:59:04.552Z,5.63
2017-12-09T21:01:32.847Z,7.23
2017-12-09T21:04:01.144Z,3.80
2017-12-09T21:06:29.464Z,5.20
2017-12-09T21:08:57.767Z,6.07
2017-12-09T21:11:26.890Z,7.30
2017-12-09T21:13:56.468Z,8.97
2017-12-09T21:16:25.255Z,10.20
2017-12-09T21:18:53.530Z,6.00
2017-12-09T21:21:24.024Z,6.13
2017-12-09T21:23:54.633Z,5.77
2017-12-09T21:26:23.079Z,6.00
2017-12-09T21:28:51.415Z,5.17
2017-12-09T21:31:19.886Z,3.60
2017-12-09T21:33:48.172Z,5.57
2017-12-09T21:36:16.500Z,5.50
2017-12-09T21:38:44.799Z,2.80
2017-12-09T21:41:13.209Z,3.03
2017-12-09T21:43:41.685Z,4.23
2017-12-09T21:46:09.990Z,5.10
2017-12-09T21:48:40.288Z,2.40
2017-12-09T21:51:08.614Z,3.20
2017-12-09T21:53:37.119Z,4.00
2017-12-09T21:56:05.588Z,6.20
2017-12-09T21:58:33.986Z,3.83
2017-12-09T22:01:03.638Z,2.33
2017-12-09T22:03:34.451Z,2.80
2017-12-09T22:06:03.541Z,2.80
2017-12-09T22:08:32.318Z,2.27
2017-12-09T22:11:00.846Z,3.47
2017-12-09T22:13:29.124Z,2.33
2017-12-09T22:15:58.606Z,5.63
2017-12-09T22:18:27.199Z,5.67
2017-12-09T22:20:55.508Z,3.00
2017-12-09T22:23:23.817Z,2.23
2017-12-09T22:25:52.112Z,2.90
2017-12-09T22:28:20.456Z,5.33
2017-12-09T22:30:48.947Z,2.70
2017-12-09T22:33:17.255Z,2.53
2017-12-09T22:35:45.789Z,2.00
2017-12-09T22:38:14.131Z,2.23
2017-12-09T22:40:45.831Z,2.23
2017-12-09T22:43:14.491Z,1.87
2017-12-09T22:45:45.223Z,3.00
2017-12-09T22:48:14.379Z,2.27
2017-12-09T22:50:44.812Z,1.63
2017-12-09T22:53:14.546Z,2.50
2017-12-09T22:58:38.528Z,1.93
2017-12-09T23:01:07.098Z,4.23
2017-12-09T23:03:36.870Z,1.70
2017-12-09T23:06:05.845Z,2.50
2017-12-09T23:08:34.362Z,3.33
2017-12-09T23:11:02.947Z,2.07
2017-12-09T23:13:32.374Z,2.33
2017-12-09T23:16:01.120Z,1.63
2017-12-09T23:18:29.739Z,2.57
2017-12-09T23:20:58.231Z,3.50
2017-12-09T23:23:27.146Z,1.97
2017-12-09T23:25:56.170Z,2.33
2017-12-09T23:28:26.959Z,2.93
2017-12-09T23:30:57.183Z,3.63
2017-12-09T23:33:25.674Z,1.63
2017-12-09T23:35:54.180Z,1.50
2017-12-09T23:38:22.721Z,1.73
2017-12-09T23:40:51.279Z,1.40
2017-12-09T23:43:19.739Z,4.50
2017-12-09T23:45:48.211Z,1.50
2017-12-09T23:48:16.672Z,2.43
2017-12-09T23:50:45.150Z,1.50
2017-12-09T23:53:20.724Z,2.33
2017-12-09T23:55:53.256Z,1.50
2017-12-09T23:58:22.010Z,1.90
